createdAt,value
2017-11-10T00:00:25.484Z,6.91
2017-11-10T00:02:51.870Z,6.90
2017-11-10T00:05:17.895Z,6.90
2017-11-10T00:07:44.018Z,6.90
2017-11-10T00:10:10.131Z,6.91
2017-11-10T00:12:36.527Z,6.90
2017-11-10T00:15:03.030Z,6.92
2017-11-10T00:17:29.171Z,6.89
2017-11-10T00:19:55.266Z,6.84
2017-11-10T00:22:21.368Z,6.82
2017-11-10T00:24:47.470Z,6.84
2017-11-10T00:27:13.968Z,6.85
2017-11-10T00:29:40.028Z,6.84
2017-11-10T00:32:06.166Z,6.85
2017-11-10T00:34:32.271Z,6.86
2017-11-10T00:36:58.271Z,6.82
2017-11-10T00:39:24.711Z,6.83
2017-11-10T00:41:50.747Z,6.84
2017-11-10T00:44:16.843Z,6.81
2017-11-10T00:46:43.285Z,6.83
2017-11-10T00:49:09.383Z,6.83
2017-11-10T00:51:35.477Z,6.84
2017-11-10T00:54:01.631Z,6.84
2017-11-10T00:56:27.707Z,6.84
2017-11-10T00:58:54.087Z,6.84
2017-11-10T01:01:20.179Z,6.88
2017-11-10T01:03:46.230Z,6.84
2017-11-10T01:06:12.309Z,6.85
2017-11-10T01:08:38.354Z,6.83
2017-11-10T01:11:04.859Z,6.85
2017-11-10T01:13:30.985Z,6.83
2017-11-10T01:15:57.040Z,6.82
2017-11-10T01:18:23.119Z,6.82
2017-11-10T01:20:49.235Z,6.85
2017-11-10T01:23:15.627Z,6.86
2017-11-10T01:25:41.661Z,6.86
2017-11-10T01:28:07.731Z,6.84
2017-11-10T01:30:33.824Z,6.84
2017-11-10T01:32:59.840Z,6.80
2017-11-10T01:35:26.239Z,6.81
2017-11-10T01:37:52.300Z,6.81
2017-11-10T01:40:18.387Z,6.80
2017-11-10T01:42:44.455Z,6.80
2017-11-10T01:45:10.525Z,6.76
2017-11-10T01:47:37.001Z,6.77
2017-11-10T01:50:03.187Z,6.76
2017-11-10T01:52:29.247Z,6.77
2017-11-10T01:54:55.319Z,6.73
2017-11-10T01:57:21.332Z,6.71
2017-11-10T01:59:47.727Z,6.72
2017-11-10T02:02:13.744Z,6.71
2017-11-10T02:04:39.816Z,6.74
2017-11-10T02:07:05.844Z,6.76
2017-11-10T02:09:31.876Z,6.76
2017-11-10T02:11:58.288Z,6.74
2017-11-10T02:14:26.296Z,6.80
2017-11-10T02:16:52.316Z,6.78
2017-11-10T02:19:18.676Z,6.76
2017-11-10T02:21:44.712Z,6.76
2017-11-10T02:24:10.739Z,6.76
2017-11-10T02:26:37.180Z,6.78
2017-11-10T02:29:03.192Z,6.72
2017-11-10T02:31:29.224Z,6.70
2017-11-10T02:33:55.364Z,6.72
2017-11-10T02:36:21.456Z,6.70
2017-11-10T02:38:47.923Z,6.72
2017-11-10T02:41:13.934Z,6.75
2017-11-10T02:43:40.009Z,6.72
2017-11-10T02:46:06.102Z,6.71
2017-11-10T02:48:32.229Z,6.74
2017-11-10T02:50:58.717Z,6.73
2017-11-10T02:53:24.999Z,6.75
2017-11-10T02:55:51.166Z,6.73
2017-11-10T02:58:17.663Z,6.61
2017-11-10T03:00:43.735Z,6.71
2017-11-10T03:03:09.841Z,6.70
2017-11-10T03:05:35.953Z,6.69
2017-11-10T03:08:02.048Z,6.69
2017-11-10T03:10:28.501Z,6.69
2017-11-10T03:12:54.585Z,6.65
2017-11-10T03:15:20.664Z,6.64
2017-11-10T03:17:46.777Z,6.65
2017-11-10T03:20:12.911Z,6.67
2017-11-10T03:22:39.440Z,6.66
2017-11-10T03:25:05.611Z,6.66
2017-11-10T03:27:31.704Z,6.63
2017-11-10T03:29:57.852Z,6.66
2017-11-10T03:32:23.938Z,6.64
2017-11-10T03:34:50.412Z,6.65
2017-11-10T03:37:16.510Z,6.66
2017-11-10T03:39:42.704Z,6.60
2017-11-10T03:42:09.175Z,6.61
2017-11-10T03:44:35.341Z,6.62
2017-11-10T03:47:01.374Z,6.56
2017-11-10T03:49:27.467Z,6.54
2017-11-10T03:51:53.591Z,6.59
2017-11-10T03:54:20.048Z,6.59
2017-11-10T03:56:46.127Z,6.63
2017-11-10T03:59:12.179Z,6.61
2017-11-10T04:01:38.608Z,6.63
2017-11-10T04:04:04.683Z,6.58
2017-11-10T04:06:30.738Z,6.57
2017-11-10T04:08:56.841Z,6.58
2017-11-10T04:11:22.896Z,6.59
2017-11-10T04:13:49.310Z,6.56
2017-11-10T04:16:15.428Z,6.53
2017-11-10T04:18:41.520Z,6.44
2017-11-10T04:21:07.598Z,6.47
2017-11-10T04:23:33.688Z,6.42
2017-11-10T04:26:00.119Z,6.47
2017-11-10T04:28:26.183Z,6.45
2017-11-10T04:30:52.229Z,6.41
2017-11-10T04:33:18.399Z,6.44
2017-11-10T04:35:44.514Z,6.38
2017-11-10T04:38:11.070Z,6.38
2017-11-10T04:40:37.175Z,6.36
2017-11-10T04:43:03.346Z,6.32
2017-11-10T04:45:29.466Z,6.33
2017-11-10T04:47:55.604Z,6.31
2017-11-10T04:50:22.035Z,6.36
2017-11-10T04:52:48.128Z,6.35
2017-11-10T04:55:14.208Z,6.32
2017-11-10T04:57:40.296Z,6.30
2017-11-10T05:00:06.329Z,6.26
2017-11-10T05:02:32.666Z,6.26
2017-11-10T05:04:58.786Z,6.24
2017-11-10T05:07:25.000Z,6.24
2017-11-10T05:09:51.531Z,6.21
2017-11-10T05:12:17.608Z,6.20
2017-11-10T05:14:43.731Z,6.13
2017-11-10T05:17:10.227Z,6.15
2017-11-10T05:19:36.267Z,6.15
2017-11-10T05:22:02.350Z,6.12
2017-11-10T05:24:28.629Z,6.11
2017-11-10T05:26:54.730Z,6.07
2017-11-10T05:29:21.148Z,6.03
2017-11-10T05:31:47.236Z,6.04
2017-11-10T05:34:13.702Z,6.03
2017-11-10T05:36:40.143Z,6.03
2017-11-10T05:39:06.236Z,6.02
2017-11-10T05:41:32.339Z,6.06
2017-11-10T05:43:58.762Z,6.06
2017-11-10T05:46:24.836Z,6.05
2017-11-10T05:48:50.913Z,5.99
2017-11-10T05:51:17.426Z,5.94
2017-11-10T05:53:43.495Z,5.95
2017-11-10T05:56:09.584Z,5.95
2017-11-10T05:58:35.703Z,5.94
2017-11-10T06:01:02.710Z,5.91
2017-11-10T06:03:29.214Z,5.91
2017-11-10T06:05:55.243Z,5.87
2017-11-10T06:08:21.380Z,5.86
2017-11-10T06:10:47.476Z,5.85
2017-11-10T06:13:13.578Z,5.89
2017-11-10T06:15:40.031Z,5.91
2017-11-10T06:18:06.097Z,5.87
2017-11-10T06:20:32.135Z,5.84
2017-11-10T06:22:58.246Z,5.82
2017-11-10T06:25:24.302Z,5.77
2017-11-10T06:27:50.770Z,5.80
2017-11-10T06:30:16.820Z,5.78
2017-11-10T06:32:42.890Z,5.81
2017-11-10T06:35:09.246Z,5.79
2017-11-10T06:37:35.352Z,5.78
2017-11-10T06:40:01.492Z,5.76
2017-11-10T06:42:27.599Z,5.75
2017-11-10T06:44:53.684Z,5.72
2017-11-10T06:47:20.126Z,5.68
2017-11-10T06:49:46.143Z,5.69
2017-11-10T06:52:12.223Z,5.69
2017-11-10T06:54:38.314Z,5.67
2017-11-10T06:57:04.327Z,5.65
2017-11-10T06:59:30.766Z,5.66
2017-11-10T07:01:56.841Z,5.67
2017-11-10T07:04:23.039Z,5.63
2017-11-10T07:06:49.631Z,5.65
2017-11-10T07:09:15.676Z,5.64
2017-11-10T07:11:41.753Z,5.62
2017-11-10T07:14:07.893Z,5.60
2017-11-10T07:16:33.987Z,5.62
2017-11-10T07:19:00.490Z,5.64
2017-11-10T07:21:26.567Z,5.64
2017-11-10T07:23:52.627Z,5.64
2017-11-10T07:26:18.708Z,5.63
2017-11-10T07:28:44.770Z,5.66
2017-11-10T07:31:11.220Z,5.64
2017-11-10T07:33:37.307Z,5.63
2017-11-10T07:36:03.395Z,5.58
2017-11-10T07:38:29.494Z,5.59
2017-11-10T07:40:55.524Z,5.57
2017-11-10T07:43:22.947Z,5.55
2017-11-10T07:45:49.039Z,5.57
2017-11-10T07:48:15.127Z,5.59
2017-11-10T07:50:41.209Z,5.55
2017-11-10T07:53:07.282Z,5.50
2017-11-10T07:55:33.828Z,5.51
2017-11-10T07:57:59.967Z,5.48
2017-11-10T08:00:26.049Z,5.46
2017-11-10T08:02:52.151Z,5.47
2017-11-10T08:05:18.244Z,5.45
2017-11-10T08:07:44.686Z,5.47
2017-11-10T08:10:10.779Z,5.45
2017-11-10T08:12:36.844Z,5.48
2017-11-10T08:15:03.357Z,5.50
2017-11-10T08:17:29.757Z,5.54
2017-11-10T08:19:56.247Z,5.54
2017-11-10T08:22:22.333Z,5.53
2017-11-10T08:24:48.352Z,5.46
2017-11-10T08:27:14.434Z,5.47
2017-11-10T08:29:40.546Z,5.48
2017-11-10T08:32:06.955Z,5.52
2017-11-10T08:34:33.051Z,5.48
2017-11-10T08:36:59.171Z,5.46
2017-11-10T08:39:25.247Z,5.43
2017-11-10T08:41:51.301Z,5.42
2017-11-10T08:44:17.711Z,5.46
2017-11-10T08:46:43.805Z,5.45
2017-11-10T08:49:09.856Z,5.47
2017-11-10T08:51:36.332Z,5.51
2017-11-10T08:54:02.391Z,5.54
2017-11-10T08:56:28.482Z,5.59
2017-11-10T08:58:55.423Z,5.55
2017-11-10T09:01:21.546Z,5.57
2017-11-10T09:03:47.976Z,5.55
2017-11-10T09:06:14.051Z,5.61
2017-11-10T09:08:40.152Z,5.61
2017-11-10T09:11:06.598Z,5.62
2017-11-10T09:13:32.708Z,5.54
2017-11-10T09:15:58.769Z,5.55
2017-11-10T09:18:24.963Z,5.55
2017-11-10T09:20:51.051Z,5.53
2017-11-10T09:23:17.592Z,5.59
2017-11-10T09:25:43.668Z,5.66
2017-11-10T09:28:10.728Z,5.68
2017-11-10T09:30:46.541Z,5.63
2017-11-10T09:36:44.427Z,5.60
2017-11-10T09:39:13.260Z,5.62
2017-11-10T09:45:08.203Z,5.71
2017-11-10T09:50:47.711Z,5.74
2017-11-10T09:56:36.819Z,5.69
2017-11-10T09:59:08.994Z,5.71
2017-11-10T10:01:41.453Z,5.66
2017-11-10T10:04:08.505Z,5.70
2017-11-10T10:06:40.954Z,5.72
2017-11-10T10:12:28.141Z,5.72
2017-11-10T10:15:00.344Z,5.72
2017-11-10T10:20:43.764Z,5.67
2017-11-10T10:23:10.159Z,5.68
2017-11-10T10:25:36.196Z,5.64
2017-11-10T10:28:02.288Z,5.59
2017-11-10T10:30:28.775Z,5.62
2017-11-10T10:32:54.835Z,5.62
2017-11-10T10:35:20.863Z,5.56
2017-11-10T10:37:47.024Z,5.52
2017-11-10T10:40:13.024Z,5.53
2017-11-10T10:42:39.444Z,5.54
2017-11-10T10:45:05.511Z,5.48
2017-11-10T10:47:31.581Z,5.64
2017-11-10T10:49:57.689Z,5.67
2017-11-10T10:52:23.761Z,5.66
2017-11-10T10:54:50.231Z,5.59
2017-11-10T10:57:16.304Z,5.58
2017-11-10T10:59:42.384Z,5.62
2017-11-10T11:02:08.791Z,5.59
2017-11-10T11:04:34.855Z,5.57
2017-11-10T11:07:00.939Z,5.58
2017-11-10T11:09:27.407Z,5.54
2017-11-10T11:11:53.471Z,5.53
2017-11-10T11:14:19.595Z,5.56
2017-11-10T11:16:45.716Z,5.54
2017-11-10T11:19:11.877Z,5.49
2017-11-10T11:21:38.360Z,5.54
2017-11-10T11:24:04.432Z,5.53
2017-11-10T11:26:30.556Z,5.54
2017-11-10T11:28:56.663Z,5.57
2017-11-10T11:31:22.747Z,5.57
2017-11-10T11:33:49.205Z,5.50
2017-11-10T11:36:15.318Z,5.45
2017-11-10T11:38:41.403Z,5.49
2017-11-10T11:41:07.477Z,5.43
2017-11-10T11:43:33.585Z,5.45
2017-11-10T11:46:00.012Z,5.48
2017-11-10T11:48:26.097Z,5.49
2017-11-10T11:50:52.149Z,5.48
2017-11-10T11:53:18.599Z,5.46
2017-11-10T11:55:44.696Z,5.52
2017-11-10T11:58:10.771Z,5.54
2017-11-10T12:00:36.816Z,5.51
2017-11-10T12:03:02.847Z,5.52
2017-11-10T12:05:29.263Z,5.52
2017-11-10T12:07:55.468Z,5.54
2017-11-10T12:10:21.543Z,5.49
2017-11-10T12:12:47.935Z,5.53
2017-11-10T12:15:14.193Z,5.56
2017-11-10T12:17:40.275Z,5.55
2017-11-10T12:20:06.409Z,5.62
2017-11-10T12:22:32.559Z,5.67
2017-11-10T12:24:58.995Z,5.72
2017-11-10T12:27:25.032Z,5.75
2017-11-10T12:29:51.107Z,5.80
2017-11-10T12:32:17.215Z,5.81
2017-11-10T12:34:43.335Z,5.90
2017-11-10T12:37:09.775Z,5.79
2017-11-10T12:39:35.830Z,5.85
2017-11-10T12:42:01.867Z,5.80
2017-11-10T12:44:28.303Z,5.86
2017-11-10T12:46:54.396Z,5.91
2017-11-10T12:49:20.527Z,5.93
2017-11-10T12:51:46.564Z,5.94
2017-11-10T12:54:12.636Z,5.95
2017-11-10T12:56:39.086Z,5.94
2017-11-10T12:59:05.188Z,6.00
2017-11-10T13:01:31.320Z,5.97
2017-11-10T13:03:57.715Z,5.98
2017-11-10T13:06:23.846Z,6.03
2017-11-10T13:08:49.971Z,6.00
2017-11-10T13:11:16.460Z,6.03
2017-11-10T13:13:42.576Z,6.08
2017-11-10T13:16:08.672Z,6.02
2017-11-10T13:18:35.243Z,6.06
2017-11-10T13:21:01.444Z,6.06
2017-11-10T13:23:27.566Z,6.01
2017-11-10T13:25:53.682Z,5.93
2017-11-10T13:28:19.822Z,5.91
2017-11-10T13:30:46.228Z,5.89
2017-11-10T13:33:12.311Z,5.88
2017-11-10T13:35:38.392Z,5.92
2017-11-10T13:38:04.492Z,5.89
2017-11-10T13:40:30.576Z,5.89
2017-11-10T13:42:57.074Z,5.87
2017-11-10T13:45:23.151Z,5.87
2017-11-10T13:47:49.220Z,5.87
2017-11-10T13:50:15.389Z,5.83
2017-11-10T13:52:41.493Z,5.80
2017-11-10T13:55:07.949Z,5.79
2017-11-10T13:57:34.032Z,5.75
2017-11-10T14:00:00.138Z,5.80
2017-11-10T14:02:26.236Z,5.82
2017-11-10T14:04:52.387Z,5.74
2017-11-10T14:07:18.927Z,5.72
2017-11-10T14:09:45.031Z,5.73
2017-11-10T14:12:11.159Z,5.73
2017-11-10T14:14:37.611Z,5.74
2017-11-10T14:17:03.750Z,5.72
2017-11-10T14:19:29.860Z,5.71
2017-11-10T14:21:56.038Z,5.74
2017-11-10T14:24:22.125Z,5.72
2017-11-10T14:26:48.571Z,5.75
2017-11-10T14:29:14.624Z,5.71
2017-11-10T14:31:40.825Z,5.68
2017-11-10T14:34:06.924Z,5.65
2017-11-10T14:36:32.991Z,5.68
2017-11-10T14:38:59.518Z,5.67
2017-11-10T14:41:25.687Z,5.65
2017-11-10T14:43:51.769Z,5.67
2017-11-10T14:46:17.886Z,5.72
2017-11-10T14:48:43.993Z,5.68
2017-11-10T14:51:10.587Z,5.68
2017-11-10T14:53:36.723Z,5.67
2017-11-10T14:56:02.796Z,5.64
2017-11-10T14:58:29.218Z,5.61
2017-11-10T15:00:55.369Z,5.60
2017-11-10T15:03:21.566Z,5.62
2017-11-10T15:05:47.742Z,5.59
2017-11-10T15:08:13.900Z,5.60
2017-11-10T15:10:40.361Z,5.60
2017-11-10T15:13:06.463Z,5.60
2017-11-10T15:15:32.561Z,5.57
2017-11-10T15:17:58.681Z,5.59
2017-11-10T15:20:24.705Z,5.56
2017-11-10T15:22:51.097Z,5.58
2017-11-10T15:25:17.179Z,5.57
2017-11-10T15:27:43.309Z,5.61
2017-11-10T15:30:09.404Z,5.66
2017-11-10T15:32:35.531Z,5.68
2017-11-10T15:35:01.924Z,5.64
2017-11-10T15:37:28.035Z,5.65
2017-11-10T15:39:54.144Z,5.63
2017-11-10T15:42:20.573Z,5.63
2017-11-10T15:44:46.656Z,5.60
2017-11-10T15:47:12.709Z,5.59
2017-11-10T15:49:39.127Z,5.57
2017-11-10T15:52:05.256Z,5.56
2017-11-10T15:54:31.368Z,5.57
2017-11-10T15:56:57.850Z,5.58
2017-11-10T15:59:24.129Z,5.55
2017-11-10T16:01:50.232Z,5.51
2017-11-10T16:04:16.763Z,5.56
2017-11-10T16:06:42.781Z,5.55
2017-11-10T16:09:09.102Z,5.54
2017-11-10T16:11:35.191Z,5.54
2017-11-10T16:14:01.247Z,5.55
2017-11-10T16:16:27.703Z,5.54
2017-11-10T16:18:53.829Z,5.59
2017-11-10T16:21:19.972Z,5.57
2017-11-10T16:23:46.115Z,5.57
2017-11-10T16:26:12.239Z,5.60
2017-11-10T16:28:39.035Z,5.62
2017-11-10T16:31:05.133Z,5.58
2017-11-10T16:33:31.263Z,5.59
2017-11-10T16:35:57.647Z,5.58
2017-11-10T16:38:23.711Z,5.58
2017-11-10T16:40:49.851Z,5.60
2017-11-10T16:43:15.987Z,5.64
2017-11-10T16:45:42.053Z,5.65
2017-11-10T16:48:08.572Z,5.60
2017-11-10T16:50:35.215Z,5.60
2017-11-10T16:53:01.308Z,5.60
2017-11-10T16:55:27.352Z,5.62
2017-11-10T16:57:53.457Z,5.62
2017-11-10T17:00:19.928Z,5.61
2017-11-10T17:02:46.076Z,5.62
2017-11-10T17:05:12.167Z,5.64
2017-11-10T17:07:38.597Z,5.63
2017-11-10T17:10:04.924Z,5.31
2017-11-10T17:12:31.048Z,5.60
2017-11-10T17:14:57.557Z,5.61
2017-11-10T17:17:23.767Z,5.62
2017-11-10T17:19:49.850Z,5.62
2017-11-10T17:22:15.976Z,5.60
2017-11-10T17:24:42.066Z,5.62
2017-11-10T17:27:08.558Z,5.60
2017-11-10T17:29:34.656Z,5.60
2017-11-10T17:32:00.780Z,5.60
2017-11-10T17:34:27.308Z,5.59
2017-11-10T17:36:53.375Z,5.59
2017-11-10T17:39:19.596Z,5.61
2017-11-10T17:41:46.144Z,5.62
2017-11-10T17:44:12.323Z,5.64
2017-11-10T17:46:38.477Z,5.68
2017-11-10T17:49:05.037Z,5.67
2017-11-10T17:51:31.088Z,5.66
2017-11-10T17:53:57.199Z,5.65
2017-11-10T17:56:23.718Z,5.67
2017-11-10T17:58:49.825Z,5.68
2017-11-10T18:01:16.036Z,5.72
2017-11-10T18:03:42.529Z,5.70
2017-11-10T18:06:08.654Z,5.66
2017-11-10T18:08:34.728Z,5.68
2017-11-10T18:11:01.241Z,5.72
2017-11-10T18:13:27.310Z,5.71
2017-11-10T18:15:53.414Z,5.74
2017-11-10T18:18:19.590Z,5.76
2017-11-10T18:20:45.649Z,5.75
2017-11-10T18:23:12.198Z,5.76
2017-11-10T18:25:38.244Z,5.80
2017-11-10T18:28:04.413Z,5.83
2017-11-10T18:30:30.547Z,5.86
2017-11-10T18:32:56.646Z,5.83
2017-11-10T18:35:23.112Z,5.86
2017-11-10T18:37:49.833Z,5.88
2017-11-10T18:40:15.953Z,5.89
2017-11-10T18:42:42.546Z,5.90
2017-11-10T18:45:08.601Z,5.91
2017-11-10T18:47:34.650Z,5.94
2017-11-10T18:50:01.233Z,5.97
2017-11-10T18:52:27.397Z,5.97
2017-11-10T18:55:01.826Z,6.01
2017-11-10T18:57:27.994Z,6.04
2017-11-10T18:59:54.136Z,6.08
2017-11-10T19:02:20.650Z,6.11
2017-11-10T19:04:48.013Z,6.07
2017-11-10T19:07:14.192Z,6.14
2017-11-10T19:09:40.690Z,6.17
2017-11-10T19:12:06.862Z,6.17
2017-11-10T19:14:33.018Z,6.21
2017-11-10T19:16:59.611Z,6.25
2017-11-10T19:19:25.765Z,6.24
2017-11-10T19:21:51.900Z,6.26
2017-11-10T19:24:18.487Z,6.33
2017-11-10T19:26:44.724Z,6.36
2017-11-10T19:29:11.968Z,6.31
2017-11-10T19:31:38.159Z,6.38
2017-11-10T19:34:04.449Z,6.41
2017-11-10T19:36:31.100Z,6.43
2017-11-10T19:38:57.383Z,6.47
2017-11-10T19:41:23.716Z,6.45
2017-11-10T19:43:50.587Z,6.47
2017-11-10T19:46:16.962Z,6.47
2017-11-10T19:48:43.341Z,6.47
2017-11-10T19:51:10.631Z,6.47
2017-11-10T19:53:37.028Z,6.50
2017-11-10T19:56:03.330Z,6.52
2017-11-10T19:58:29.691Z,6.42
2017-11-10T20:00:55.921Z,6.50
2017-11-10T20:03:22.613Z,6.55
2017-11-10T20:05:48.959Z,6.55
2017-11-10T20:08:15.343Z,6.56
2017-11-10T20:10:41.748Z,6.58
2017-11-10T20:13:08.187Z,6.59
2017-11-10T20:15:34.510Z,6.58
2017-11-10T20:18:00.788Z,6.59
2017-11-10T20:20:27.750Z,6.64
2017-11-10T20:22:54.023Z,6.64
2017-11-10T20:25:20.364Z,6.61
2017-11-10T20:27:46.795Z,6.63
2017-11-10T20:30:13.046Z,6.64
2017-11-10T20:32:39.273Z,6.64
2017-11-10T20:35:05.587Z,6.62
2017-11-10T20:37:31.948Z,6.62
2017-11-10T20:39:58.307Z,6.62
2017-11-10T20:42:24.957Z,6.60
2017-11-10T20:44:51.339Z,6.57
2017-11-10T20:47:17.568Z,6.55
2017-11-10T20:49:43.870Z,6.50
2017-11-10T20:52:10.631Z,6.52
2017-11-10T20:54:36.974Z,6.48
2017-11-10T20:57:03.299Z,6.52
2017-11-10T20:59:29.606Z,6.55
2017-11-10T21:01:55.829Z,6.54
2017-11-10T21:04:22.108Z,6.51
2017-11-10T21:06:48.390Z,6.56
2017-11-10T21:09:14.655Z,6.60
2017-11-10T21:11:40.765Z,6.59
2017-11-10T21:14:07.007Z,6.59
2017-11-10T21:16:33.161Z,6.57
2017-11-10T21:18:59.417Z,6.60
2017-11-10T21:21:25.599Z,6.58
2017-11-10T21:23:51.714Z,6.60
2017-11-10T21:26:18.600Z,6.52
2017-11-10T21:28:44.807Z,6.55
2017-11-10T21:31:10.999Z,6.53
2017-11-10T21:33:37.154Z,6.54
2017-11-10T21:36:03.302Z,6.56
2017-11-10T21:38:29.508Z,6.52
2017-11-10T21:40:55.592Z,6.52
2017-11-10T21:43:22.453Z,6.51
2017-11-10T21:45:48.885Z,6.48
2017-11-10T21:48:14.961Z,6.52
2017-11-10T21:50:41.119Z,6.49
2017-11-10T21:53:07.289Z,6.50
2017-11-10T21:55:33.441Z,6.44
2017-11-10T21:57:59.472Z,6.43
2017-11-10T22:00:25.599Z,6.44
2017-11-10T22:02:51.614Z,6.38
2017-11-10T22:05:17.728Z,6.40
2017-11-10T22:07:43.868Z,6.37
2017-11-10T22:10:10.310Z,6.28
2017-11-10T22:12:36.393Z,6.32
2017-11-10T22:15:02.522Z,6.33
2017-11-10T22:17:28.730Z,6.30
2017-11-10T22:19:54.860Z,6.10
2017-11-10T22:22:20.921Z,5.87
2017-11-10T22:24:47.034Z,5.89
2017-11-10T22:27:13.181Z,5.83
2017-11-10T22:29:39.303Z,5.65
2017-11-10T22:32:05.376Z,5.56
2017-11-10T22:34:31.424Z,5.43
2017-11-10T22:36:57.557Z,5.39
2017-11-10T22:39:23.670Z,5.32
2017-11-10T22:41:50.131Z,5.34
2017-11-10T22:44:16.227Z,5.30
2017-11-10T22:46:42.316Z,5.20
2017-11-10T22:49:08.473Z,5.25
2017-11-10T22:51:34.566Z,5.25
2017-11-10T22:54:00.668Z,5.04
2017-11-10T22:56:26.764Z,5.07
2017-11-10T22:58:52.832Z,5.16
2017-11-10T23:01:18.998Z,5.10
2017-11-10T23:03:45.076Z,4.98
2017-11-10T23:06:11.162Z,4.72
2017-11-10T23:08:37.303Z,4.92
2017-11-10T23:11:03.423Z,4.73
2017-11-10T23:13:29.508Z,4.76
2017-11-10T23:15:55.614Z,4.67
2017-11-10T23:18:21.810Z,4.73
2017-11-10T23:20:47.893Z,4.73
2017-11-10T23:23:13.984Z,4.57
2017-11-10T23:25:40.067Z,4.55
2017-11-10T23:28:06.179Z,4.64
2017-11-10T23:30:32.353Z,4.73
2017-11-10T23:32:58.513Z,4.64
2017-11-10T23:35:24.655Z,4.64
2017-11-10T23:37:50.725Z,4.68
2017-11-10T23:40:16.851Z,4.47
2017-11-10T23:42:42.939Z,4.43
2017-11-10T23:45:09.075Z,4.41
2017-11-10T23:47:35.152Z,4.52
2017-11-10T23:50:01.437Z,4.51
2017-11-10T23:52:27.531Z,4.38
2017-11-10T23:54:53.668Z,4.48
2017-11-10T23:57:19.697Z,4.44
2017-11-10T23:59:45.808Z,4.28
